Terminal Aerodrome Forecast
Issued by NWS

Home | Current Version | Previous Version | Graphics & Text | Print | Product List | Glossary On
Versions: 1 2 3 4 5 6 7 8 9 10 11 12
000
FTUS43 KICT 242340
TAFRSL
TAF
KRSL 242340Z 2500/2524 21008KT P6SM SCT250
     FM250200 16007KT P6SM FEW100 BKN250
     FM251300 09007KT 6SM BR BKN250
     FM251800 35011KT P6SM BKN030
     FM252100 35014KT P6SM BKN030=

USA.gov is the U.S. government's official web portal to all federal, state and local government web resources and services.